sensor_id;sensor_type;location;lat;lon;timestamp;P1;durP1;ratioP1;P2;durP2;ratioP2
23121;SDS011;11730;51.248;22.534;2023-08-31T00:02:05;7.15;;;5.72;;
23121;SDS011;11730;51.248;22.534;2023-08-31T00:04:32;8.25;;;5.53;;
23121;SDS011;11730;51.248;22.534;2023-08-31T00:06:59;8.38;;;5.88;;
23121;SDS011;11730;51.248;22.534;2023-08-31T00:09:26;8.88;;;5.55;;
23121;SDS011;11730;51.248;22.534;2023-08-31T00:11:55;8.75;;;6.18;;
23121;SDS011;11730;51.248;22.534;2023-08-31T00:14:23;7.47;;;5.82;;
23121;SDS011;11730;51.248;22.534;2023-08-31T00:16:51;10.93;;;6.53;;
23121;SDS011;11730;51.248;22.534;2023-08-31T00:19:18;10.35;;;6.60;;
23121;SDS011;11730;51.248;22.534;2023-08-31T00:21:46;13.00;;;8.88;;
23121;SDS011;11730;51.248;22.534;2023-08-31T00:24:15;14.05;;;8.40;;
23121;SDS011;11730;51.248;22.534;2023-08-31T00:26:42;42.75;;;18.08;;
23121;SDS011;11730;51.248;22.534;2023-08-31T00:29:09;46.28;;;21.10;;
23121;SDS011;11730;51.248;22.534;2023-08-31T00:34:10;59.90;;;25.48;;
23121;SDS011;11730;51.248;22.534;2023-08-31T00:36:41;66.32;;;28.73;;
23121;SDS011;11730;51.248;22.534;2023-08-31T00:39:08;65.68;;;27.50;;
23121;SDS011;11730;51.248;22.534;2023-08-31T00:41:36;70.70;;;28.58;;
23121;SDS011;11730;51.248;22.534;2023-08-31T00:44:03;70.57;;;30.40;;
23121;SDS011;11730;51.248;22.534;2023-08-31T00:46:31;73.38;;;30.13;;
23121;SDS011;11730;51.248;22.534;2023-08-31T00:48:59;71.18;;;29.20;;
23121;SDS011;11730;51.248;22.534;2023-08-31T00:51:26;72.93;;;28.13;;
23121;SDS011;11730;51.248;22.534;2023-08-31T00:53:53;73.75;;;27.77;;
23121;SDS011;11730;51.248;22.534;2023-08-31T00:56:21;63.72;;;26.05;;
23121;SDS011;11730;51.248;22.534;2023-08-31T00:58:48;65.72;;;26.45;;
23121;SDS011;11730;51.248;22.534;2023-08-31T01:01:18;65.65;;;26.80;;
23121;SDS011;11730;51.248;22.534;2023-08-31T01:12:04;51.65;;;23.23;;
23121;SDS011;11730;51.248;22.534;2023-08-31T01:14:44;46.95;;;22.98;;
23121;SDS011;11730;51.248;22.534;2023-08-31T01:17:20;45.35;;;22.52;;
23121;SDS011;11730;51.248;22.534;2023-08-31T01:19:50;34.17;;;19.13;;
23121;SDS011;11730;51.248;22.534;2023-08-31T01:22:39;31.08;;;19.38;;
23121;SDS011;11730;51.248;22.534;2023-08-31T01:25:10;28.25;;;17.33;;
23121;SDS011;11730;51.248;22.534;2023-08-31T01:27:38;27.80;;;16.83;;
23121;SDS011;11730;51.248;22.534;2023-08-31T01:30:06;27.27;;;17.05;;
23121;SDS011;11730;51.248;22.534;2023-08-31T01:32:34;26.45;;;16.65;;
23121;SDS011;11730;51.248;22.534;2023-08-31T01:35:02;23.92;;;15.68;;
23121;SDS011;11730;51.248;22.534;2023-08-31T01:37:38;29.58;;;17.27;;
23121;SDS011;11730;51.248;22.534;2023-08-31T01:40:13;29.90;;;17.00;;
23121;SDS011;11730;51.248;22.534;2023-08-31T01:42:45;29.95;;;17.42;;
23121;SDS011;11730;51.248;22.534;2023-08-31T01:45:14;32.88;;;17.45;;
23121;SDS011;11730;51.248;22.534;2023-08-31T01:47:47;36.60;;;18.10;;
23121;SDS011;11730;51.248;22.534;2023-08-31T01:50:14;30.95;;;16.75;;
23121;SDS011;11730;51.248;22.534;2023-08-31T01:52:41;31.05;;;15.63;;
23121;SDS011;11730;51.248;22.534;2023-08-31T01:55:09;24.88;;;13.68;;
23121;SDS011;11730;51.248;22.534;2023-08-31T01:57:36;29.13;;;13.68;;
23121;SDS011;11730;51.248;22.534;2023-08-31T02:00:03;21.80;;;12.57;;
23121;SDS011;11730;51.248;22.534;2023-08-31T02:02:32;21.73;;;11.55;;
23121;SDS011;11730;51.248;22.534;2023-08-31T02:04:59;20.88;;;12.70;;
23121;SDS011;11730;51.248;22.534;2023-08-31T02:07:28;25.95;;;14.85;;
23121;SDS011;11730;51.248;22.534;2023-08-31T02:09:55;35.75;;;18.00;;
23121;SDS011;11730;51.248;22.534;2023-08-31T02:12:22;46.92;;;22.33;;
23121;SDS011;11730;51.248;22.534;2023-08-31T02:14:49;56.97;;;26.00;;
23121;SDS011;11730;51.248;22.534;2023-08-31T02:17:17;64.13;;;29.80;;
23121;SDS011;11730;51.248;22.534;2023-08-31T02:19:44;59.60;;;28.05;;
23121;SDS011;11730;51.248;22.534;2023-08-31T02:22:11;61.85;;;27.98;;
23121;SDS011;11730;51.248;22.534;2023-08-31T02:24:38;50.92;;;25.52;;
23121;SDS011;11730;51.248;22.534;2023-08-31T02:27:05;44.60;;;24.40;;
23121;SDS011;11730;51.248;22.534;2023-08-31T02:29:32;48.60;;;25.38;;
23121;SDS011;11730;51.248;22.534;2023-08-31T02:32:00;43.80;;;23.20;;
23121;SDS011;11730;51.248;22.534;2023-08-31T02:34:30;46.97;;;23.52;;
23121;SDS011;11730;51.248;22.534;2023-08-31T02:36:58;46.63;;;23.63;;
23121;SDS011;11730;51.248;22.534;2023-08-31T02:39:25;44.85;;;23.15;;
23121;SDS011;11730;51.248;22.534;2023-08-31T02:41:52;51.95;;;23.65;;
23121;SDS011;11730;51.248;22.534;2023-08-31T02:44:19;51.83;;;25.63;;
23121;SDS011;11730;51.248;22.534;2023-08-31T02:46:47;61.83;;;28.73;;
23121;SDS011;11730;51.248;22.534;2023-08-31T02:49:14;64.85;;;27.63;;
23121;SDS011;11730;51.248;22.534;2023-08-31T02:51:41;58.08;;;26.73;;
23121;SDS011;11730;51.248;22.534;2023-08-31T02:54:08;59.75;;;27.42;;
23121;SDS011;11730;51.248;22.534;2023-08-31T02:56:36;59.83;;;27.55;;
23121;SDS011;11730;51.248;22.534;2023-08-31T02:59:03;60.17;;;27.30;;
23121;SDS011;11730;51.248;22.534;2023-08-31T03:01:31;60.42;;;27.25;;
23121;SDS011;11730;51.248;22.534;2023-08-31T03:03:58;55.85;;;25.15;;
23121;SDS011;11730;51.248;22.534;2023-08-31T03:06:25;57.88;;;24.33;;
23121;SDS011;11730;51.248;22.534;2023-08-31T03:08:52;49.63;;;22.65;;
23121;SDS011;11730;51.248;22.534;2023-08-31T03:11:19;48.80;;;21.90;;
23121;SDS011;11730;51.248;22.534;2023-08-31T03:13:47;40.40;;;19.92;;
23121;SDS011;11730;51.248;22.534;2023-08-31T03:16:14;41.42;;;19.05;;
23121;SDS011;11730;51.248;22.534;2023-08-31T03:18:41;37.30;;;18.42;;
23121;SDS011;11730;51.248;22.534;2023-08-31T03:21:08;37.90;;;18.73;;
23121;SDS011;11730;51.248;22.534;2023-08-31T03:23:35;32.63;;;16.33;;
23121;SDS011;11730;51.248;22.534;2023-08-31T03:26:06;35.40;;;16.38;;
23121;SDS011;11730;51.248;22.534;2023-08-31T03:28:36;24.92;;;13.43;;
23121;SDS011;11730;51.248;22.534;2023-08-31T03:31:05;28.20;;;13.07;;
23121;SDS011;11730;51.248;22.534;2023-08-31T03:33:32;26.05;;;12.70;;
23121;SDS011;11730;51.248;22.534;2023-08-31T03:35:59;21.38;;;12.85;;
23121;SDS011;11730;51.248;22.534;2023-08-31T03:38:31;19.70;;;12.68;;
23121;SDS011;11730;51.248;22.534;2023-08-31T03:40:58;23.63;;;12.75;;
23121;SDS011;11730;51.248;22.534;2023-08-31T03:43:26;20.70;;;13.15;;
23121;SDS011;11730;51.248;22.534;2023-08-31T03:45:53;20.20;;;13.45;;
23121;SDS011;11730;51.248;22.534;2023-08-31T03:48:24;19.80;;;13.52;;
23121;SDS011;11730;51.248;22.534;2023-08-31T03:50:52;22.20;;;12.43;;
23121;SDS011;11730;51.248;22.534;2023-08-31T03:53:20;20.25;;;13.50;;
23121;SDS011;11730;51.248;22.534;2023-08-31T03:55:47;19.60;;;13.77;;
23121;SDS011;11730;51.248;22.534;2023-08-31T03:58:14;20.88;;;14.48;;
23121;SDS011;11730;51.248;22.534;2023-08-31T04:00:42;20.30;;;14.05;;
23121;SDS011;11730;51.248;22.534;2023-08-31T04:03:09;17.70;;;12.93;;
23121;SDS011;11730;51.248;22.534;2023-08-31T04:05:37;21.30;;;13.73;;
23121;SDS011;11730;51.248;22.534;2023-08-31T04:08:05;17.85;;;13.00;;
23121;SDS011;11730;51.248;22.534;2023-08-31T04:10:32;17.30;;;12.13;;
23121;SDS011;11730;51.248;22.534;2023-08-31T04:12:59;23.50;;;14.82;;
23121;SDS011;11730;51.248;22.534;2023-08-31T04:15:27;18.98;;;13.07;;
23121;SDS011;11730;51.248;22.534;2023-08-31T04:17:54;19.73;;;12.82;;
23121;SDS011;11730;51.248;22.534;2023-08-31T04:20:21;17.65;;;12.98;;
23121;SDS011;11730;51.248;22.534;2023-08-31T04:22:48;21.92;;;12.68;;
23121;SDS011;11730;51.248;22.534;2023-08-31T04:25:15;16.92;;;12.63;;
23121;SDS011;11730;51.248;22.534;2023-08-31T04:27:43;18.75;;;12.45;;
23121;SDS011;11730;51.248;22.534;2023-08-31T04:30:11;19.20;;;12.95;;
23121;SDS011;11730;51.248;22.534;2023-08-31T04:32:38;22.92;;;13.15;;
23121;SDS011;11730;51.248;22.534;2023-08-31T04:35:06;24.23;;;14.07;;
23121;SDS011;11730;51.248;22.534;2023-08-31T04:37:33;22.38;;;13.02;;
23121;SDS011;11730;51.248;22.534;2023-08-31T04:40:01;18.52;;;11.98;;
23121;SDS011;11730;51.248;22.534;2023-08-31T04:42:30;18.30;;;13.30;;
23121;SDS011;11730;51.248;22.534;2023-08-31T04:44:58;21.23;;;13.77;;
23121;SDS011;11730;51.248;22.534;2023-08-31T04:47:25;21.13;;;13.95;;
23121;SDS011;11730;51.248;22.534;2023-08-31T04:49:52;19.90;;;13.18;;
23121;SDS011;11730;51.248;22.534;2023-08-31T04:52:20;21.45;;;14.40;;
23121;SDS011;11730;51.248;22.534;2023-08-31T04:54:47;22.58;;;14.38;;
23121;SDS011;11730;51.248;22.534;2023-08-31T04:57:13;21.15;;;13.80;;
23121;SDS011;11730;51.248;22.534;2023-08-31T04:59:41;21.88;;;14.18;;
23121;SDS011;11730;51.248;22.534;2023-08-31T05:02:08;20.73;;;12.90;;
23121;SDS011;11730;51.248;22.534;2023-08-31T05:04:35;21.25;;;13.88;;
23121;SDS011;11730;51.248;22.534;2023-08-31T05:07:02;20.23;;;14.65;;
23121;SDS011;11730;51.248;22.534;2023-08-31T05:09:30;18.98;;;13.70;;
23121;SDS011;11730;51.248;22.534;2023-08-31T05:12:01;20.48;;;14.48;;
23121;SDS011;11730;51.248;22.534;2023-08-31T05:14:29;20.15;;;13.57;;
23121;SDS011;11730;51.248;22.534;2023-08-31T05:16:56;19.15;;;13.18;;
23121;SDS011;11730;51.248;22.534;2023-08-31T05:19:23;14.90;;;11.20;;
23121;SDS011;11730;51.248;22.534;2023-08-31T05:21:53;17.98;;;12.13;;
23121;SDS011;11730;51.248;22.534;2023-08-31T05:24:20;21.15;;;14.23;;
23121;SDS011;11730;51.248;22.534;2023-08-31T05:26:48;19.48;;;12.20;;
23121;SDS011;11730;51.248;22.534;2023-08-31T05:29:16;42.22;;;30.20;;
23121;SDS011;11730;51.248;22.534;2023-08-31T05:31:43;19.50;;;13.65;;
23121;SDS011;11730;51.248;22.534;2023-08-31T05:34:10;18.42;;;13.07;;
23121;SDS011;11730;51.248;22.534;2023-08-31T05:36:42;21.83;;;13.13;;
23121;SDS011;11730;51.248;22.534;2023-08-31T05:39:09;15.20;;;12.30;;
23121;SDS011;11730;51.248;22.534;2023-08-31T05:41:39;15.88;;;11.63;;
23121;SDS011;11730;51.248;22.534;2023-08-31T05:44:07;17.75;;;11.90;;
23121;SDS011;11730;51.248;22.534;2023-08-31T05:46:35;16.92;;;13.20;;
23121;SDS011;11730;51.248;22.534;2023-08-31T05:49:02;17.15;;;12.73;;
23121;SDS011;11730;51.248;22.534;2023-08-31T05:51:29;17.67;;;12.73;;
23121;SDS011;11730;51.248;22.534;2023-08-31T05:53:56;17.10;;;11.82;;
23121;SDS011;11730;51.248;22.534;2023-08-31T05:56:23;15.88;;;11.77;;
23121;SDS011;11730;51.248;22.534;2023-08-31T05:58:50;21.83;;;12.18;;
23121;SDS011;11730;51.248;22.534;2023-08-31T06:01:21;15.75;;;11.95;;
23121;SDS011;11730;51.248;22.534;2023-08-31T06:03:48;14.38;;;10.95;;
23121;SDS011;11730;51.248;22.534;2023-08-31T06:06:16;14.00;;;10.98;;
23121;SDS011;11730;51.248;22.534;2023-08-31T06:08:43;15.00;;;10.70;;
23121;SDS011;11730;51.248;22.534;2023-08-31T06:11:10;14.80;;;10.90;;
23121;SDS011;11730;51.248;22.534;2023-08-31T06:13:40;27.35;;;19.83;;
23121;SDS011;11730;51.248;22.534;2023-08-31T06:16:07;151.48;;;114.03;;
23121;SDS011;11730;51.248;22.534;2023-08-31T06:18:34;15.32;;;11.73;;
23121;SDS011;11730;51.248;22.534;2023-08-31T06:21:02;15.80;;;11.20;;
23121;SDS011;11730;51.248;22.534;2023-08-31T06:23:29;15.80;;;10.27;;
23121;SDS011;11730;51.248;22.534;2023-08-31T06:25:56;16.52;;;11.27;;
23121;SDS011;11730;51.248;22.534;2023-08-31T06:28:23;13.77;;;10.73;;
23121;SDS011;11730;51.248;22.534;2023-08-31T06:30:50;16.90;;;10.55;;
23121;SDS011;11730;51.248;22.534;2023-08-31T06:33:17;14.25;;;10.95;;
23121;SDS011;11730;51.248;22.534;2023-08-31T06:35:46;14.15;;;10.35;;
23121;SDS011;11730;51.248;22.534;2023-08-31T06:38:18;15.57;;;10.65;;
23121;SDS011;11730;51.248;22.534;2023-08-31T06:40:46;13.85;;;10.60;;
23121;SDS011;11730;51.248;22.534;2023-08-31T06:43:13;15.68;;;10.10;;
23121;SDS011;11730;51.248;22.534;2023-08-31T06:45:41;14.07;;;10.93;;
23121;SDS011;11730;51.248;22.534;2023-08-31T06:48:08;13.18;;;10.15;;
23121;SDS011;11730;51.248;22.534;2023-08-31T06:50:36;13.38;;;9.38;;
23121;SDS011;11730;51.248;22.534;2023-08-31T06:53:03;12.43;;;8.38;;
23121;SDS011;11730;51.248;22.534;2023-08-31T06:55:31;11.40;;;8.93;;
23121;SDS011;11730;51.248;22.534;2023-08-31T06:57:58;10.88;;;8.00;;
23121;SDS011;11730;51.248;22.534;2023-08-31T07:00:25;11.63;;;8.68;;
23121;SDS011;11730;51.248;22.534;2023-08-31T07:02:52;9.80;;;8.07;;
23121;SDS011;11730;51.248;22.534;2023-08-31T07:05:24;9.60;;;7.28;;
23121;SDS011;11730;51.248;22.534;2023-08-31T07:07:52;9.07;;;7.97;;
23121;SDS011;11730;51.248;22.534;2023-08-31T07:10:21;11.85;;;8.38;;
23121;SDS011;11730;51.248;22.534;2023-08-31T07:12:48;8.35;;;7.22;;
23121;SDS011;11730;51.248;22.534;2023-08-31T07:15:15;18.33;;;14.10;;
23121;SDS011;11730;51.248;22.534;2023-08-31T07:17:43;9.18;;;7.13;;
23121;SDS011;11730;51.248;22.534;2023-08-31T07:20:11;8.32;;;7.43;;
23121;SDS011;11730;51.248;22.534;2023-08-31T07:22:38;12.13;;;6.95;;
23121;SDS011;11730;51.248;22.534;2023-08-31T07:25:07;10.93;;;6.13;;
23121;SDS011;11730;51.248;22.534;2023-08-31T07:27:34;7.50;;;5.90;;
23121;SDS011;11730;51.248;22.534;2023-08-31T07:30:01;6.57;;;5.88;;
23121;SDS011;11730;51.248;22.534;2023-08-31T07:32:30;8.73;;;6.30;;
23121;SDS011;11730;51.248;22.534;2023-08-31T07:34:57;11.32;;;9.10;;
23121;SDS011;11730;51.248;22.534;2023-08-31T07:37:24;8.93;;;6.45;;
23121;SDS011;11730;51.248;22.534;2023-08-31T07:39:51;10.93;;;6.28;;
23121;SDS011;11730;51.248;22.534;2023-08-31T07:42:19;9.18;;;6.80;;
23121;SDS011;11730;51.248;22.534;2023-08-31T07:44:46;8.35;;;5.68;;
23121;SDS011;11730;51.248;22.534;2023-08-31T07:47:14;6.30;;;5.68;;
23121;SDS011;11730;51.248;22.534;2023-08-31T07:49:41;7.35;;;6.18;;
23121;SDS011;11730;51.248;22.534;2023-08-31T07:52:08;8.25;;;5.30;;
23121;SDS011;11730;51.248;22.534;2023-08-31T07:54:35;6.80;;;5.38;;
23121;SDS011;11730;51.248;22.534;2023-08-31T07:57:02;7.95;;;4.95;;
23121;SDS011;11730;51.248;22.534;2023-08-31T07:59:29;14.63;;;7.65;;
23121;SDS011;11730;51.248;22.534;2023-08-31T08:01:56;23.88;;;16.15;;
23121;SDS011;11730;51.248;22.534;2023-08-31T08:04:24;7.18;;;4.18;;
23121;SDS011;11730;51.248;22.534;2023-08-31T08:06:52;3.83;;;3.42;;
23121;SDS011;11730;51.248;22.534;2023-08-31T08:09:20;5.30;;;3.78;;
23121;SDS011;11730;51.248;22.534;2023-08-31T08:11:47;3.35;;;3.00;;
23121;SDS011;11730;51.248;22.534;2023-08-31T08:14:14;6.50;;;3.40;;
23121;SDS011;11730;51.248;22.534;2023-08-31T08:16:42;4.05;;;3.33;;
23121;SDS011;11730;51.248;22.534;2023-08-31T08:19:09;3.70;;;3.15;;
23121;SDS011;11730;51.248;22.534;2023-08-31T08:21:36;2.90;;;2.53;;
23121;SDS011;11730;51.248;22.534;2023-08-31T08:24:03;2.95;;;2.30;;
23121;SDS011;11730;51.248;22.534;2023-08-31T08:26:30;5.25;;;3.15;;
23121;SDS011;11730;51.248;22.534;2023-08-31T08:28:58;3.97;;;2.65;;
23121;SDS011;11730;51.248;22.534;2023-08-31T08:31:25;4.00;;;3.00;;
23121;SDS011;11730;51.248;22.534;2023-08-31T08:33:52;4.13;;;2.90;;
23121;SDS011;11730;51.248;22.534;2023-08-31T08:36:19;3.75;;;3.30;;
23121;SDS011;11730;51.248;22.534;2023-08-31T08:38:46;6.38;;;3.60;;
23121;SDS011;11730;51.248;22.534;2023-08-31T08:41:14;6.93;;;3.33;;
23121;SDS011;11730;51.248;22.534;2023-08-31T08:43:45;4.65;;;3.83;;
23121;SDS011;11730;51.248;22.534;2023-08-31T08:46:13;4.00;;;3.20;;
23121;SDS011;11730;51.248;22.534;2023-08-31T08:48:40;5.32;;;3.55;;
23121;SDS011;11730;51.248;22.534;2023-08-31T08:51:09;3.90;;;3.42;;
23121;SDS011;11730;51.248;22.534;2023-08-31T08:53:37;3.85;;;2.83;;
23121;SDS011;11730;51.248;22.534;2023-08-31T08:56:07;3.65;;;2.83;;
23121;SDS011;11730;51.248;22.534;2023-08-31T08:58:34;47.35;;;38.67;;
23121;SDS011;11730;51.248;22.534;2023-08-31T09:01:01;6.32;;;4.75;;
23121;SDS011;11730;51.248;22.534;2023-08-31T09:03:29;5.63;;;3.13;;
23121;SDS011;11730;51.248;22.534;2023-08-31T09:05:56;4.10;;;2.63;;
23121;SDS011;11730;51.248;22.534;2023-08-31T09:08:31;7.22;;;4.13;;
23121;SDS011;11730;51.248;22.534;2023-08-31T09:10:59;5.10;;;2.83;;
23121;SDS011;11730;51.248;22.534;2023-08-31T09:13:27;5.28;;;2.90;;
23121;SDS011;11730;51.248;22.534;2023-08-31T09:15:55;3.22;;;2.50;;
23121;SDS011;11730;51.248;22.534;2023-08-31T09:18:26;4.75;;;3.03;;
23121;SDS011;11730;51.248;22.534;2023-08-31T09:21:01;5.55;;;2.58;;
23121;SDS011;11730;51.248;22.534;2023-08-31T09:23:28;3.80;;;2.53;;
23121;SDS011;11730;51.248;22.534;2023-08-31T09:25:55;3.25;;;2.85;;
23121;SDS011;11730;51.248;22.534;2023-08-31T09:28:23;3.60;;;2.42;;
23121;SDS011;11730;51.248;22.534;2023-08-31T09:31:07;2.47;;;1.98;;
23121;SDS011;11730;51.248;22.534;2023-08-31T09:33:35;2.30;;;2.10;;
23121;SDS011;11730;51.248;22.534;2023-08-31T09:36:03;2.28;;;2.08;;
23121;SDS011;11730;51.248;22.534;2023-08-31T09:38:40;1.77;;;1.67;;
23121;SDS011;11730;51.248;22.534;2023-08-31T09:41:08;3.03;;;1.88;;
23121;SDS011;11730;51.248;22.534;2023-08-31T09:43:36;2.50;;;1.77;;
23121;SDS011;11730;51.248;22.534;2023-08-31T09:46:03;2.03;;;1.88;;
23121;SDS011;11730;51.248;22.534;2023-08-31T09:48:31;17.05;;;13.52;;
23121;SDS011;11730;51.248;22.534;2023-08-31T09:50:59;3.28;;;1.95;;
23121;SDS011;11730;51.248;22.534;2023-08-31T09:53:36;3.70;;;1.88;;
23121;SDS011;11730;51.248;22.534;2023-08-31T09:56:06;2.03;;;1.88;;
23121;SDS011;11730;51.248;22.534;2023-08-31T10:01:03;3.42;;;2.05;;
23121;SDS011;11730;51.248;22.534;2023-08-31T10:03:49;3.78;;;1.80;;
23121;SDS011;11730;51.248;22.534;2023-08-31T10:06:17;2.10;;;1.67;;
23121;SDS011;11730;51.248;22.534;2023-08-31T10:08:45;2.47;;;1.33;;
23121;SDS011;11730;51.248;22.534;2023-08-31T10:11:12;1.88;;;1.60;;
23121;SDS011;11730;51.248;22.534;2023-08-31T10:13:41;2.17;;;1.77;;
23121;SDS011;11730;51.248;22.534;2023-08-31T10:16:09;1.73;;;1.63;;
23121;SDS011;11730;51.248;22.534;2023-08-31T10:18:37;2.78;;;1.23;;
23121;SDS011;11730;51.248;22.534;2023-08-31T10:21:05;2.08;;;1.20;;
23121;SDS011;11730;51.248;22.534;2023-08-31T10:23:32;1.45;;;1.15;;
23121;SDS011;11730;51.248;22.534;2023-08-31T10:26:04;1.10;;;1.00;;
23121;SDS011;11730;51.248;22.534;2023-08-31T10:28:38;1.65;;;0.90;;
23121;SDS011;11730;51.248;22.534;2023-08-31T10:31:10;1.25;;;1.05;;
23121;SDS011;11730;51.248;22.534;2023-08-31T10:33:44;1.25;;;1.10;;
23121;SDS011;11730;51.248;22.534;2023-08-31T10:36:21;2.38;;;1.20;;
23121;SDS011;11730;51.248;22.534;2023-08-31T10:41:23;1.65;;;1.20;;
23121;SDS011;11730;51.248;22.534;2023-08-31T10:46:33;2.65;;;1.08;;
23121;SDS011;11730;51.248;22.534;2023-08-31T10:51:38;3.53;;;1.33;;
23121;SDS011;11730;51.248;22.534;2023-08-31T11:02:29;1.70;;;1.58;;
23121;SDS011;11730;51.248;22.534;2023-08-31T11:05:07;1.48;;;1.05;;
23121;SDS011;11730;51.248;22.534;2023-08-31T11:07:39;3.03;;;1.08;;
23121;SDS011;11730;51.248;22.534;2023-08-31T11:12:36;1.40;;;1.00;;
23121;SDS011;11730;51.248;22.534;2023-08-31T11:15:04;2.90;;;1.30;;
23121;SDS011;11730;51.248;22.534;2023-08-31T11:17:31;1.15;;;0.93;;
23121;SDS011;11730;51.248;22.534;2023-08-31T11:20:00;2.33;;;1.20;;
23121;SDS011;11730;51.248;22.534;2023-08-31T11:22:27;2.90;;;1.00;;
23121;SDS011;11730;51.248;22.534;2023-08-31T11:24:55;2.95;;;1.55;;
23121;SDS011;11730;51.248;22.534;2023-08-31T11:27:23;2.45;;;1.38;;
23121;SDS011;11730;51.248;22.534;2023-08-31T11:29:50;1.90;;;1.58;;
23121;SDS011;11730;51.248;22.534;2023-08-31T11:32:17;1.50;;;1.25;;
23121;SDS011;11730;51.248;22.534;2023-08-31T11:34:44;3.13;;;1.25;;
23121;SDS011;11730;51.248;22.534;2023-08-31T11:37:12;2.70;;;1.20;;
23121;SDS011;11730;51.248;22.534;2023-08-31T11:39:49;2.10;;;1.02;;
23121;SDS011;11730;51.248;22.534;2023-08-31T11:42:19;3.30;;;1.15;;
23121;SDS011;11730;51.248;22.534;2023-08-31T11:44:48;2.08;;;1.00;;
23121;SDS011;11730;51.248;22.534;2023-08-31T11:47:18;3.58;;;1.38;;
23121;SDS011;11730;51.248;22.534;2023-08-31T11:49:46;3.70;;;1.38;;
23121;SDS011;11730;51.248;22.534;2023-08-31T11:52:15;2.90;;;1.48;;
23121;SDS011;11730;51.248;22.534;2023-08-31T11:54:42;1.58;;;1.05;;
23121;SDS011;11730;51.248;22.534;2023-08-31T11:57:10;2.83;;;1.38;;
23121;SDS011;11730;51.248;22.534;2023-08-31T11:59:37;2.00;;;1.10;;
23121;SDS011;11730;51.248;22.534;2023-08-31T12:02:05;1.33;;;1.20;;
23121;SDS011;11730;51.248;22.534;2023-08-31T12:04:43;1.67;;;1.35;;
23121;SDS011;11730;51.248;22.534;2023-08-31T12:07:11;3.03;;;1.80;;
23121;SDS011;11730;51.248;22.534;2023-08-31T12:09:45;1.88;;;1.30;;
23121;SDS011;11730;51.248;22.534;2023-08-31T12:12:15;3.30;;;1.20;;
23121;SDS011;11730;51.248;22.534;2023-08-31T12:14:46;2.55;;;1.33;;
23121;SDS011;11730;51.248;22.534;2023-08-31T12:17:13;1.90;;;1.15;;
23121;SDS011;11730;51.248;22.534;2023-08-31T12:19:45;4.95;;;3.15;;
23121;SDS011;11730;51.248;22.534;2023-08-31T12:22:12;1.75;;;1.27;;
23121;SDS011;11730;51.248;22.534;2023-08-31T12:24:39;2.75;;;1.65;;
23121;SDS011;11730;51.248;22.534;2023-08-31T12:27:10;3.10;;;1.35;;
23121;SDS011;11730;51.248;22.534;2023-08-31T12:29:37;2.28;;;1.50;;
23121;SDS011;11730;51.248;22.534;2023-08-31T12:32:04;1.55;;;1.35;;
23121;SDS011;11730;51.248;22.534;2023-08-31T12:34:32;3.25;;;1.80;;
23121;SDS011;11730;51.248;22.534;2023-08-31T12:36:59;2.35;;;1.38;;
23121;SDS011;11730;51.248;22.534;2023-08-31T12:39:27;1.40;;;1.30;;
23121;SDS011;11730;51.248;22.534;2023-08-31T12:41:54;1.80;;;1.40;;
23121;SDS011;11730;51.248;22.534;2023-08-31T12:44:38;8.88;;;1.63;;
23121;SDS011;11730;51.248;22.534;2023-08-31T12:47:06;2.65;;;1.52;;
23121;SDS011;11730;51.248;22.534;2023-08-31T12:49:33;3.88;;;1.50;;
23121;SDS011;11730;51.248;22.534;2023-08-31T12:52:00;5.95;;;2.60;;
23121;SDS011;11730;51.248;22.534;2023-08-31T12:54:27;3.85;;;1.70;;
23121;SDS011;11730;51.248;22.534;2023-08-31T12:56:54;2.85;;;1.60;;
23121;SDS011;11730;51.248;22.534;2023-08-31T12:59:21;3.17;;;1.83;;
23121;SDS011;11730;51.248;22.534;2023-08-31T13:01:48;3.58;;;1.65;;
23121;SDS011;11730;51.248;22.534;2023-08-31T13:04:16;2.08;;;1.30;;
23121;SDS011;11730;51.248;22.534;2023-08-31T13:06:43;3.80;;;2.13;;
23121;SDS011;11730;51.248;22.534;2023-08-31T13:09:10;2.10;;;1.50;;
23121;SDS011;11730;51.248;22.534;2023-08-31T13:11:37;3.63;;;1.92;;
23121;SDS011;11730;51.248;22.534;2023-08-31T13:14:04;4.70;;;2.15;;
23121;SDS011;11730;51.248;22.534;2023-08-31T13:16:31;4.03;;;1.73;;
23121;SDS011;11730;51.248;22.534;2023-08-31T13:18:59;4.38;;;1.80;;
23121;SDS011;11730;51.248;22.534;2023-08-31T13:21:26;2.72;;;1.83;;
23121;SDS011;11730;51.248;22.534;2023-08-31T13:23:54;6.07;;;1.83;;
23121;SDS011;11730;51.248;22.534;2023-08-31T13:26:22;3.47;;;1.83;;
23121;SDS011;11730;51.248;22.534;2023-08-31T13:28:49;3.28;;;1.90;;
23121;SDS011;11730;51.248;22.534;2023-08-31T13:31:16;3.03;;;1.77;;
23121;SDS011;11730;51.248;22.534;2023-08-31T13:33:42;1.80;;;1.52;;
23121;SDS011;11730;51.248;22.534;2023-08-31T13:36:10;3.08;;;1.58;;
23121;SDS011;11730;51.248;22.534;2023-08-31T13:38:38;1.60;;;1.50;;
23121;SDS011;11730;51.248;22.534;2023-08-31T13:41:05;3.10;;;1.67;;
23121;SDS011;11730;51.248;22.534;2023-08-31T13:43:33;5.57;;;1.83;;
23121;SDS011;11730;51.248;22.534;2023-08-31T13:46:00;16.02;;;11.32;;
23121;SDS011;11730;51.248;22.534;2023-08-31T13:48:28;2.55;;;1.75;;
23121;SDS011;11730;51.248;22.534;2023-08-31T13:50:58;7.53;;;2.03;;
23121;SDS011;11730;51.248;22.534;2023-08-31T13:53:26;4.18;;;1.88;;
23121;SDS011;11730;51.248;22.534;2023-08-31T13:55:53;2.03;;;1.80;;
23121;SDS011;11730;51.248;22.534;2023-08-31T13:58:20;3.80;;;1.80;;
23121;SDS011;11730;51.248;22.534;2023-08-31T14:00:47;3.58;;;1.92;;
23121;SDS011;11730;51.248;22.534;2023-08-31T14:03:21;2.47;;;1.67;;
23121;SDS011;11730;51.248;22.534;2023-08-31T14:05:54;4.78;;;2.00;;
23121;SDS011;11730;51.248;22.534;2023-08-31T14:08:21;3.08;;;1.95;;
23121;SDS011;11730;51.248;22.534;2023-08-31T14:10:47;4.72;;;1.80;;
23121;SDS011;11730;51.248;22.534;2023-08-31T14:13:15;7.53;;;2.40;;
23121;SDS011;11730;51.248;22.534;2023-08-31T14:15:45;4.70;;;1.92;;
23121;SDS011;11730;51.248;22.534;2023-08-31T14:18:13;4.25;;;2.10;;
23121;SDS011;11730;51.248;22.534;2023-08-31T14:20:41;3.13;;;1.88;;
23121;SDS011;11730;51.248;22.534;2023-08-31T14:23:08;3.97;;;2.20;;
23121;SDS011;11730;51.248;22.534;2023-08-31T14:25:36;3.05;;;2.75;;
23121;SDS011;11730;51.248;22.534;2023-08-31T14:28:04;3.72;;;2.10;;
23121;SDS011;11730;51.248;22.534;2023-08-31T14:30:32;3.50;;;1.95;;
23121;SDS011;11730;51.248;22.534;2023-08-31T14:33:01;2.97;;;2.03;;
23121;SDS011;11730;51.248;22.534;2023-08-31T14:35:28;4.47;;;2.10;;
23121;SDS011;11730;51.248;22.534;2023-08-31T14:37:56;3.42;;;2.17;;
23121;SDS011;11730;51.248;22.534;2023-08-31T14:40:24;3.00;;;2.47;;
23121;SDS011;11730;51.248;22.534;2023-08-31T14:42:51;4.20;;;2.47;;
23121;SDS011;11730;51.248;22.534;2023-08-31T14:45:20;3.72;;;2.45;;
23121;SDS011;11730;51.248;22.534;2023-08-31T14:47:48;5.13;;;2.30;;
23121;SDS011;11730;51.248;22.534;2023-08-31T14:50:15;4.93;;;2.65;;
23121;SDS011;11730;51.248;22.534;2023-08-31T14:52:42;3.13;;;2.20;;
23121;SDS011;11730;51.248;22.534;2023-08-31T14:55:09;6.95;;;2.42;;
23121;SDS011;11730;51.248;22.534;2023-08-31T14:57:36;5.97;;;2.75;;
23121;SDS011;11730;51.248;22.534;2023-08-31T15:00:03;7.38;;;2.42;;
23121;SDS011;11730;51.248;22.534;2023-08-31T15:02:32;3.13;;;2.65;;